Startpagina
METAR-TAF:

METAR-TAF

Vliegvelden :

Luchthaven Franjo Tuđman Zagreb

Zagreb, Kroatië

breedte: 45-44N, lengte: 016-04E, hoogte: 106 m

Actueel weer

Dit bericht is 24 minuten geleden gemaakt, om 11:30 UTC
Wind 9 kt uit het noordoosten, variërend tussen het noorden en het oostnoordoosten
Temperatuur 11°C
Vochtigheid 58%
Druk 1030 hPa
Zicht 10 km of meer
Weinig wolken op 3500 ft

METAR: LDZA 161130Z 04009KT 010V070 9999 FEW035 11/03 Q1030 NOSIG

Tijdstip: 12:54 (11:54 UTC)

Verwachting

Dit bericht is 29 minuten geleden gemaakt, om 11:25 UTC
Verwachting geldig van 16 om 12 UTC tot 17 om 12 UTC
Wind 8 kt uit het noordnoordoosten
Zicht 10 km of meer
geen wolken onder 1500 m en geen cumulonimbus
Kans 30% :
Tijdelijke
van 16 om 12 UTC tot 16 om 17 UTC
Wind 15 kt uit het noordnoordoosten
Tijdelijke
van 17 om 08 UTC tot 17 om 12 UTC
Wind 15 kt uit het noordnoordoosten

TAF: LDZA 161125Z 1612/1712 03008KT CAVOK TX11/1613Z TN01/1705Z PROB30 TEMPO 1612/1617 03015KT TEMPO 1708/1712 03015KT

Waarnemingen en weersverwachtingen van meer dan 4000 vliegvelden (METAR en TAF).

De beschikbare stations zijn de gele en rode punten op de kaart.

Ga met uw muis naar het station om de naam te zien.

Klik dan om waarnemingen en weersverwachtingen te zien.

kaart wijzigen: klik op de groene knoppen met een zwart kruis om in te zoomen, op de groene knop met een streepje om uit te zoomen of op de groene pijlen voor aangrenzende kaarten.


METAR-TAF: